Impacts METAR Board
IDs:

KATL - Atlanta/Hartsfield-J, GA, US

Updated at: 1100 UTC 09 Jul 2020
Potential Impact None Slight Moderate High
Time 08/23Z 09/00Z 09/01Z 09/02Z 09/03Z 09/04Z 09/05Z 09/06Z 09/07Z 09/08Z 09/09Z 09/10Z 09/11Z
Temp83 82 79 78 77 77 76 76 75 75 73 74 74
Dewpt72 72 70 70 70 69 71 71 71 71 70 69 68
Altim29.92 29.92 29.93 29.94 29.96 29.94 29.93 29.92 29.92 29.92 29.92 29.93 29.95
VIS10 10 10 10 10 10 10 10 10 10 10 10 10
CIG140 65 150 120 140 200 200 250 250 -- 190 180 160
CoverBKNBKNBKNBKNBKNOVCBKNBKNBKNSCTBKNBKNBKN
FltCatVFRVFRVFRVFRVFRVFRVFRVFRVFRVFRVFRVFRVFR
WX--------------------------
WDir270280310260280300300340330320280320310
WSpd5 7 8 3 6 7 6 5 5 5 4 3 5
WGst-- -- -- -- -- -- -- -- -- -- -- -- --
Raw hourly METARs
KATL 082252Z 27005KT 10SM FEW025 SCT070 BKN140 BKN250 28/22 A2992 RMK AO2 SLP119 LTG DSNT SE NW-N CB DSNT NW-NE SE T02830222
KATL 082352Z 28007KT 10SM FEW025 BKN065 BKN150 BKN250 28/22 A2992 RMK AO2 SLP122 LTG DSNT NW CB DSNT N-NE NW 60000 T02780222 10300 20272 55001
KATL 090052Z 31008KT 10SM FEW020TCU SCT050 BKN150 BKN250 26/21 A2993 RMK AO2 SLP125 CB DSNT NE TCU E-SE DSNT NW T02610211
KATL 090152Z 26003KT 10SM SCT070 BKN120 BKN250 26/21 A2994 RMK AO2 SLP129 T02560211
KATL 090252Z 28006KT 10SM SCT070 BKN140 BKN200 25/21 A2996 RMK AO2 SLP135 T02500211 53013
KATL 090352Z 30007KT 10SM FEW070 SCT140 BKN200 OVC250 25/21 A2994 RMK AO2 SLP129 T02500206
KATL 090452Z 30006KT 10SM FEW080 SCT150 BKN200 BKN250 24/22 A2993 RMK AO2 SLP125 T02440217 403000233
KATL 090552Z 34005KT 10SM FEW080 SCT180 BKN250 24/22 A2992 RMK AO2 SLP121 T02440217 10278 20239 56014
KATL 090652Z 33005KT 10SM SCT150 SCT200 BKN250 24/22 A2992 RMK AO2 SLP120 T02390217
KATL 090752Z 32005KT 10SM FEW010 FEW150 SCT220 24/22 A2992 RMK AO2 SLP119 T02390217
KATL 090852Z 28004KT 10SM FEW010 BKN190 BKN250 23/21 A2992 RMK AO2 SLP121 T02280211 55001
KATL 090952Z 32003KT 10SM FEW012 FEW080 BKN180 BKN250 23/21 A2993 RMK AO2 SLP125 T02330206
KATL 091052Z COR 31005KT 10SM FEW060 BKN160 BKN190 BKN250 23/20 A2995 RMK AO2 SLP131 CB DSNT E & SE T02330200



Page loaded:  11:46 UTC  |   04:46 AM Pacific  |   05:46 AM Mountain  |   06:46 AM Central  |   07:46 AM Eastern

 

ADVISORIES

FORECASTS

FORECASTS

OBSERVATIONS

USER TOOLS

ABOUT US